Monument, CO

12:47 PM MDT on October 01, 2014 (GMT -0600)
Bent Tree 1 | Change Station
CLOSE
Current Station
Personal Weather Station
Location: Monument, CO
Elevation: 2270 m
Nearby Weather Stations

Elev 2270 m 39.09 °N, 104.81 °W | Updated 1 second ago

Partly Cloudy
Partly Cloudy
14.5 °C
Feels Like 14.5 °C
N
0.0
Wind Variable Wind from NE
Gusts 9.7 km/h

Today
High -- | Low -- °C
--% Chance of Precip.
Yesterday
High -- | Low -- °C
Precip. -- mm
6:55 AM 6:41 PM
Waxing Crescent, 50% visible
Pressure 1007 hPa
Visibility 16.1 kilometers
Clouds Clear
Dew Point 1 °C
Humidity 41%
Rainfall 0 mm
Snow Depth 0 in , 0 in , 0 in
UV 4.4 out of 12
Pollen 4.10 out of 12
Ozone Good
PM2.5 Good
Flu Activity Not available.
METAR KAFF 011758Z AUTO 13010KT 10SM CLR 15/00 A2993 RMK AO2 SLP072 T01520001 10157 20042 58007

More Conditions Fewer Conditions

Pressure 1007 hPa
Visibility 16.1 kilometers
Clouds Clear
Dew Point 1 °C
Humidity 41%
Rainfall 0 mm
Snow Depth 0 in , 0 in , 0 in
UV 4.4 out of 12
Pollen 4.10 out of 12
Ozone Good
PM2.5 Good
Flu Activity Not available.
METAR KAFF 011758Z AUTO 13010KT 10SM CLR 15/00 A2993 RMK AO2 SLP072 T01520001 10157 20042 58007

More Conditions Fewer Conditions

10-Day Weather Forecast

Almanac

Astronomy

Oct. 01, 2014 Rise Set
Actual Time 6:55 AM MDT 6:41 PM MDT
Civil Twilight 6:28 AM MDT 7:08 PM MDT
Nautical Twilight 5:57 AM MDT 7:39 PM MDT
Astronomical Twilight 5:26 AM MDT 8:10 PM MDT
Moon 1:56 PM MDT No Moon Set
Length of Visible Light 12h 39m
Length of Day
11h 46m
Tomorrow will be 2m 32s shorter.
Waxing Crescent, 50% of the Moon is Illuminated
Today
Waxing Crescent
Oct 1
First Quarter
Oct 8
Full
Oct 15
Last Quarter
Oct 23
New

Today's Extremes

State Highs State Lows

Community

WunderPhotos

Upload Photos

1,758,010 photos uploaded!

WunderBlogs® & News

By Dr. Jeff Masters
Director of Meteorology, Weather Underground
By Kari Strenfel
Meteorologist, Weather Underground
By Christopher C. Burt
Weather Historian, Weather Underground
October 1, 2014
October 1, 2014
October 1, 2014

Nearby

Air Quality

  Air Quality AQ Index Pollutant
Yesterday Good
OZONE
Yesterday Good
PM2.5
Current Good
OZONE
Current Good
PM2.5
Wednesday Good
PM2.5
Wednesday Good
OZONE

Snow Depth

Station Depth Elevation
Zirkel 0 in 9340 ft
Middle Fork Camp 0 in 9000 ft
Crosho 0 in 9100 ft
Lizard Head Pass 1 in 10200 ft
Niwot 1 in 9910 ft

Earthquake Activity

City Distance Mag. Time & Date
No recent earthquake activity has been reported nearby.
Minimum magnitude displayed is 2.5.

Coastal Water Temperatures

Place Temperature
No Stations Reporting

Nearby Weather Stations